createdAt,value
2023-05-11T00:00:03.056Z,0
2023-05-11T00:05:02.749Z,0
2023-05-11T00:10:02.520Z,0
2023-05-11T00:15:02.408Z,0
2023-05-11T00:20:03.258Z,0
2023-05-11T00:25:02.950Z,0
2023-05-11T00:30:02.751Z,0
2023-05-11T00:35:02.660Z,0
2023-05-11T00:40:02.583Z,0
2023-05-11T00:45:02.582Z,0
2023-05-11T00:50:03.239Z,0
2023-05-11T00:55:03.909Z,0
2023-05-11T01:00:02.653Z,0
2023-05-11T01:05:03.389Z,0
2023-05-11T01:10:03.172Z,0
2023-05-11T01:15:03.376Z,0
2023-05-11T01:20:02.838Z,0
2023-05-11T01:25:02.523Z,0
2023-05-11T01:30:03.255Z,0
2023-05-11T01:35:03.311Z,0
2023-05-11T01:40:03.261Z,0
2023-05-11T01:45:02.935Z,0
2023-05-11T01:50:02.437Z,0
2023-05-11T01:55:03.928Z,0
2023-05-11T02:00:02.764Z,0
2023-05-11T02:05:02.654Z,0
2023-05-11T02:10:02.385Z,0
2023-05-11T02:15:03.419Z,0
2023-05-11T02:20:03.055Z,0
2023-05-11T02:25:02.793Z,0
2023-05-11T02:30:02.800Z,0
2023-05-11T02:35:02.693Z,0.11
2023-05-11T02:40:03.504Z,0.45
2023-05-11T02:45:03.015Z,1.02
2023-05-11T02:50:02.875Z,2.26
2023-05-11T02:55:03.262Z,4.75
2023-05-11T03:00:02.487Z,9.85
2023-05-11T03:05:03.204Z,8.33
2023-05-11T03:10:02.931Z,20
2023-05-11T03:15:02.718Z,40
2023-05-11T03:20:02.480Z,68.33
2023-05-11T03:25:03.268Z,106.67
2023-05-11T03:30:02.978Z,156.67
2023-05-11T03:35:02.673Z,215
2023-05-11T03:40:02.403Z,303.33
2023-05-11T03:45:03.087Z,426.67
2023-05-11T03:50:02.778Z,570
2023-05-11T03:55:02.947Z,730
2023-05-11T04:00:03.564Z,1103.33
2023-05-11T04:05:03.072Z,1275
2023-05-11T04:10:02.775Z,1446.67
2023-05-11T04:15:02.469Z,1706.67
2023-05-11T04:20:03.332Z,1946.67
2023-05-11T04:25:03.058Z,2161.67
2023-05-11T04:30:03.137Z,2328.33
2023-05-11T04:35:02.753Z,2575
2023-05-11T04:40:02.727Z,2630
2023-05-11T04:45:02.715Z,2825
2023-05-11T04:50:02.517Z,2931.67
2023-05-11T04:55:03.394Z,3020
2023-05-11T05:00:02.565Z,3250
2023-05-11T05:05:03.201Z,3915
2023-05-11T05:10:03.041Z,4461.67
2023-05-11T05:15:02.836Z,5100
2023-05-11T05:20:02.636Z,6436.67
2023-05-11T05:25:02.745Z,6665
2023-05-11T05:30:03.223Z,6715
2023-05-11T05:35:03.269Z,6153.33
2023-05-11T05:55:03.415Z,5271.67
2023-05-11T06:00:02.560Z,5501.67
2023-05-11T06:05:03.356Z,5491.67
2023-05-11T06:10:02.836Z,5696.67
2023-05-11T06:15:02.703Z,5980
2023-05-11T06:20:02.490Z,6681.67
2023-05-11T06:25:03.509Z,6751.67
2023-05-11T06:30:03.048Z,8443.33
2023-05-11T06:35:02.739Z,8835
2023-05-11T06:40:02.566Z,9416.67
2023-05-11T06:45:03.480Z,8925
2023-05-11T06:55:02.901Z,11320
2023-05-11T07:00:03.658Z,11858.33
2023-05-11T07:05:03.199Z,12231.67
2023-05-11T07:10:02.726Z,11438.33
2023-05-11T07:30:03.152Z,33130
2023-05-11T07:35:02.631Z,36993.33
2023-05-11T07:40:02.500Z,40680
2023-05-11T07:50:02.915Z,34656.67
2023-05-11T07:55:03.081Z,33180
2023-05-11T08:00:02.612Z,28773.33
2023-05-11T08:10:03.119Z,36976.67
2023-05-11T08:15:02.819Z,33840
2023-05-11T08:20:02.515Z,12675
2023-05-11T08:25:03.354Z,29846.67
2023-05-11T08:30:03.131Z,35003.33
2023-05-11T08:35:03.299Z,40413.33
2023-05-11T08:40:02.859Z,39866.67
2023-05-11T08:45:02.659Z,36693.33
2023-05-11T08:50:03.285Z,40943.33
2023-05-11T08:55:03.495Z,39756.67
2023-05-11T09:05:02.840Z,40913.33
2023-05-11T09:10:02.545Z,39966.67
2023-05-11T09:15:03.162Z,39433.33
2023-05-11T09:25:02.749Z,41813.33
2023-05-11T09:30:02.793Z,48460
2023-05-11T09:35:02.495Z,70444.69
2023-05-11T09:45:02.984Z,70755.55
2023-05-11T09:50:02.909Z,68613.67
2023-05-11T09:55:02.777Z,69663.05
2023-05-11T10:00:03.163Z,70309.92
2023-05-11T10:05:02.924Z,32093.33
2023-05-11T10:10:02.817Z,37270
2023-05-11T10:15:03.153Z,11275
2023-05-11T10:20:03.385Z,75524.45
2023-05-11T10:25:03.050Z,28083.33
2023-05-11T10:30:02.812Z,11418.33
2023-05-11T10:35:02.560Z,13648.33
2023-05-11T10:40:03.293Z,67801.48
2023-05-11T10:45:03.610Z,47206.67
2023-05-11T10:50:02.958Z,43790
2023-05-11T10:55:03.596Z,57877.34
2023-05-11T11:00:02.546Z,73373.59
2023-05-11T11:05:03.334Z,8385
2023-05-11T11:10:02.930Z,71150.86
2023-05-11T11:15:02.823Z,12286.67
2023-05-11T11:20:02.507Z,76155.16
2023-05-11T11:25:02.454Z,89076.48
2023-05-11T11:30:02.517Z,37373.33
2023-05-11T11:35:03.275Z,92409.69
2023-05-11T11:40:15.814Z,60838.59
2023-05-11T11:45:03.042Z,62942.73
2023-05-11T11:50:02.945Z,44883.33
2023-05-11T11:55:03.300Z,42773.33
2023-05-11T12:00:03.233Z,66205.86
2023-05-11T12:05:03.113Z,65093.59
2023-05-11T12:10:02.843Z,37796.67
2023-05-11T12:15:02.614Z,38696.67
2023-05-11T12:20:02.682Z,66297.5
2023-05-11T12:25:02.424Z,76016.8
2023-05-11T12:30:03.251Z,9293.33
2023-05-11T12:35:03.035Z,7656.67
2023-05-11T12:40:02.804Z,9816.67
2023-05-11T12:45:02.607Z,11940
2023-05-11T12:50:02.500Z,13290
2023-05-11T12:55:03.504Z,40433.33
2023-05-11T13:00:03.062Z,69594.77
2023-05-11T13:05:02.670Z,60808.05
2023-05-11T13:10:02.704Z,7441.67
2023-05-11T13:15:03.176Z,9980
2023-05-11T13:20:03.261Z,12626.67
2023-05-11T13:25:02.473Z,6983.33
2023-05-11T13:30:02.519Z,5340
2023-05-11T13:35:03.192Z,3823.33
2023-05-11T13:40:03.171Z,4591.67
2023-05-11T13:45:02.720Z,6295
2023-05-11T13:50:02.878Z,8695
2023-05-11T13:55:03.301Z,11083.33
2023-05-11T14:00:02.662Z,11643.33
2023-05-11T14:05:02.388Z,11698.33
2023-05-11T14:10:02.731Z,13435
2023-05-11T14:15:03.291Z,11820
2023-05-11T14:20:03.282Z,10940
2023-05-11T14:25:03.089Z,46246.67
2023-05-11T14:30:02.907Z,10451.67
2023-05-11T14:35:02.646Z,8481.67
2023-05-11T14:40:02.553Z,8563.33
2023-05-11T14:45:03.305Z,8306.67
2023-05-11T14:50:03.027Z,8771.67
2023-05-11T14:55:03.119Z,7266.67
2023-05-11T15:00:02.764Z,6808.33
2023-05-11T15:05:03.354Z,6378.33
2023-05-11T15:10:03.645Z,6186.67
2023-05-11T15:15:03.109Z,6310
2023-05-11T15:20:02.929Z,6645
2023-05-11T15:25:02.621Z,6908.33
2023-05-11T15:30:02.424Z,7160
2023-05-11T15:35:03.361Z,7568.33
2023-05-11T15:40:03.023Z,8311.67
2023-05-11T15:45:02.802Z,8143.33
2023-05-11T15:50:02.707Z,8408.33
2023-05-11T15:55:02.767Z,11695
2023-05-11T16:00:03.236Z,7485
2023-05-11T16:05:02.937Z,7055
2023-05-11T16:10:02.605Z,6915
2023-05-11T16:15:02.714Z,5865
2023-05-11T16:20:02.500Z,5525
2023-05-11T16:25:02.565Z,5491.67
2023-05-11T16:30:22.078Z,4645
2023-05-11T16:35:02.625Z,4641.67
2023-05-11T16:40:02.688Z,4283.33
2023-05-11T16:45:03.409Z,4166.67
2023-05-11T16:50:02.505Z,3848.33
2023-05-11T16:55:03.697Z,3648.33
2023-05-11T17:00:03.348Z,3703.33
2023-05-11T17:05:02.871Z,4678.33
2023-05-11T17:10:02.728Z,5086.67
2023-05-11T17:15:02.872Z,4330
2023-05-11T17:20:03.248Z,3905
2023-05-11T17:25:02.990Z,3191.67
2023-05-11T17:30:03.082Z,3125
2023-05-11T17:35:02.715Z,2846.67
2023-05-11T17:40:02.377Z,2661.67
2023-05-11T17:45:02.520Z,2450
2023-05-11T17:50:03.213Z,2111.67
2023-05-11T17:55:03.317Z,1748.33
2023-05-11T18:00:02.928Z,1498.33
2023-05-11T18:05:03.158Z,1146.67
2023-05-11T18:10:03.387Z,953.33
2023-05-11T18:15:03.123Z,735
2023-05-11T18:20:02.973Z,581.67
2023-05-11T18:25:02.805Z,460
2023-05-11T18:30:02.485Z,345
2023-05-11T18:35:03.248Z,253.33
2023-05-11T18:40:02.978Z,185
2023-05-11T18:45:02.925Z,126.67
2023-05-11T18:50:02.487Z,85
2023-05-11T18:55:03.439Z,56.67
2023-05-11T19:00:03.216Z,33.33
2023-05-11T19:05:03.051Z,18.33
2023-05-11T19:10:02.815Z,8.33
2023-05-11T19:15:02.659Z,9.51
2023-05-11T19:20:02.421Z,4.64
2023-05-11T19:25:02.556Z,2.26
2023-05-11T19:30:03.274Z,1.02
2023-05-11T19:35:02.900Z,0.45
2023-05-11T19:40:45.113Z,0.11
2023-05-11T19:45:02.595Z,0
2023-05-11T19:50:03.385Z,0
2023-05-11T19:55:04.304Z,0
2023-05-11T20:00:03.188Z,0
2023-05-11T20:05:02.830Z,0
2023-05-11T20:10:02.557Z,0
2023-05-11T20:15:02.482Z,0
2023-05-11T20:20:03.280Z,0
2023-05-11T20:25:02.559Z,0
2023-05-11T20:30:03.344Z,0
2023-05-11T20:35:03.324Z,0
2023-05-11T20:40:03.069Z,0
2023-05-11T20:45:02.856Z,0
2023-05-11T20:50:02.731Z,0
2023-05-11T20:55:03.479Z,0
2023-05-11T21:00:05.186Z,0
2023-05-11T21:05:03.430Z,0
2023-05-11T21:10:02.993Z,0
2023-05-11T21:15:02.702Z,0
2023-05-11T21:20:02.715Z,0
2023-05-11T21:25:02.546Z,0
2023-05-11T21:30:02.700Z,0
2023-05-11T21:35:02.572Z,0
2023-05-11T21:40:03.264Z,0
2023-05-11T21:45:03.384Z,0
2023-05-11T21:50:02.968Z,0
2023-05-11T21:55:03.768Z,0
2023-05-11T22:00:05.269Z,0
2023-05-11T22:05:02.889Z,0
2023-05-11T22:10:02.804Z,0
2023-05-11T22:15:02.828Z,0
2023-05-11T22:20:02.453Z,0
2023-05-11T22:25:02.428Z,0
2023-05-11T22:30:03.159Z,0
2023-05-11T22:35:03.171Z,0
2023-05-11T22:40:02.774Z,0
2023-05-11T22:45:02.899Z,0
2023-05-11T22:50:02.723Z,0
2023-05-11T22:55:03.739Z,0
2023-05-11T23:00:02.429Z,0
2023-05-11T23:05:03.194Z,0
2023-05-11T23:10:02.469Z,0
2023-05-11T23:15:02.464Z,0
2023-05-11T23:20:03.558Z,0
2023-05-11T23:25:03.126Z,0
2023-05-11T23:30:02.815Z,0
2023-05-11T23:35:02.438Z,0
2023-05-11T23:40:02.650Z,0
2023-05-11T23:45:03.385Z,0
2023-05-11T23:50:03.001Z,0
2023-05-11T23:55:03.472Z,0
